createdAt,value
2024-03-01T00:00:47.505Z,36.58
2024-03-01T00:03:14.789Z,41.17
2024-03-01T00:05:41.424Z,37.00
2024-03-01T00:08:08.022Z,37.58
2024-03-01T00:10:34.695Z,34.05
2024-03-01T00:13:01.340Z,41.08
2024-03-01T00:15:27.978Z,36.95
2024-03-01T00:17:55.190Z,32.28
2024-03-01T00:20:23.390Z,35.85
2024-03-01T00:22:52.133Z,42.30
2024-03-01T00:25:20.350Z,36.47
2024-03-01T00:27:47.044Z,38.67
2024-03-01T00:30:13.829Z,38.40
2024-03-01T00:32:40.562Z,42.88
2024-03-01T00:35:07.769Z,36.42
2024-03-01T00:37:34.422Z,42.28
2024-03-01T00:40:01.082Z,43.53
2024-03-01T00:42:27.710Z,42.08
2024-03-01T00:44:54.321Z,38.88
2024-03-01T00:47:20.938Z,38.65
2024-03-01T00:49:49.428Z,35.67
2024-03-01T00:52:16.220Z,37.47
2024-03-01T00:54:42.830Z,40.33
2024-03-01T00:57:09.448Z,39.38
2024-03-01T00:59:36.025Z,35.88
2024-03-01T01:02:02.766Z,42.25
2024-03-01T01:04:29.600Z,41.35
2024-03-01T01:06:56.310Z,33.40
2024-03-01T01:09:22.989Z,39.40
2024-03-01T01:11:49.786Z,36.90
2024-03-01T01:14:16.590Z,33.10
2024-03-01T01:16:43.134Z,34.50
2024-03-01T01:19:09.858Z,36.72
2024-03-01T01:21:36.561Z,35.92
2024-03-01T01:24:04.614Z,31.65
2024-03-01T01:26:31.183Z,34.67
2024-03-01T01:28:57.801Z,41.05
2024-03-01T01:31:24.652Z,35.67
2024-03-01T01:33:51.397Z,36.67
2024-03-01T01:36:17.955Z,36.78
2024-03-01T01:38:44.577Z,36.05
2024-03-01T01:41:11.229Z,39.00
2024-03-01T01:43:39.416Z,40.95
2024-03-01T01:46:06.100Z,35.90
2024-03-01T01:48:32.741Z,33.42
2024-03-01T01:50:59.381Z,36.67
2024-03-01T01:53:27.762Z,41.40
2024-03-01T01:55:58.071Z,42.03
2024-03-01T01:58:24.706Z,37.42
2024-03-01T02:00:51.481Z,35.70
2024-03-01T02:03:18.238Z,35.75
2024-03-01T02:05:44.922Z,41.22
2024-03-01T02:08:11.498Z,41.20
2024-03-01T02:10:38.161Z,43.45
2024-03-01T02:13:04.874Z,43.25
2024-03-01T02:15:31.649Z,38.30
2024-03-01T02:17:58.574Z,37.83
2024-03-01T02:20:27.107Z,39.35
2024-03-01T02:23:01.819Z,44.60
2024-03-01T02:25:28.650Z,43.00
2024-03-01T02:27:55.405Z,41.22
2024-03-01T02:30:22.082Z,43.15
2024-03-01T02:32:48.784Z,39.47
2024-03-01T02:35:15.520Z,38.95
2024-03-01T02:37:45.315Z,38.00
2024-03-01T02:40:12.588Z,37.50
2024-03-01T02:42:39.268Z,36.70
2024-03-01T02:45:06.054Z,35.17
2024-03-01T02:47:32.672Z,40.30
2024-03-01T02:49:59.557Z,33.40
2024-03-01T02:52:26.692Z,34.35
2024-03-01T02:54:53.315Z,46.08
2024-03-01T02:57:19.946Z,39.97
2024-03-01T02:59:46.582Z,41.72
2024-03-01T03:02:13.260Z,41.58
2024-03-01T03:04:39.944Z,44.50
2024-03-01T03:07:10.640Z,46.38
2024-03-01T03:09:42.497Z,43.67
2024-03-01T03:12:09.312Z,37.35
2024-03-01T03:14:35.988Z,39.13
2024-03-01T03:17:02.581Z,41.00
2024-03-01T03:19:29.237Z,37.97
2024-03-01T03:21:55.910Z,38.47
2024-03-01T03:24:22.556Z,44.35
2024-03-01T03:26:49.276Z,44.45
2024-03-01T03:29:15.978Z,45.55
2024-03-01T03:31:42.643Z,37.50
2024-03-01T03:34:10.222Z,41.45
2024-03-01T03:36:36.838Z,38.42
2024-03-01T03:39:03.940Z,39.92
2024-03-01T03:41:30.529Z,38.33
2024-03-01T03:43:57.162Z,37.55
2024-03-01T03:46:23.889Z,34.97
2024-03-01T03:48:50.537Z,37.20
2024-03-01T03:51:27.151Z,39.30
2024-03-01T03:53:57.070Z,42.17
2024-03-01T03:56:26.960Z,37.90
2024-03-01T03:58:53.575Z,39.33
2024-03-01T04:01:23.533Z,39.90
2024-03-01T04:03:50.624Z,37.63
2024-03-01T04:06:17.605Z,37.58
2024-03-01T04:08:44.252Z,38.65
2024-03-01T04:11:10.959Z,32.80
2024-03-01T04:13:37.992Z,39.22
2024-03-01T04:16:06.556Z,41.95
2024-03-01T04:18:33.552Z,38.40
2024-03-01T04:21:00.464Z,38.70
2024-03-01T04:23:27.893Z,36.92
2024-03-01T04:25:55.109Z,34.58
2024-03-01T04:28:22.042Z,38.35
2024-03-01T04:30:49.064Z,39.35
2024-03-01T04:33:16.155Z,33.72
2024-03-01T04:35:43.067Z,38.38
2024-03-01T04:38:09.914Z,36.70
2024-03-01T04:40:38.848Z,40.83
2024-03-01T04:43:06.039Z,33.53
2024-03-01T04:45:32.780Z,39.05
2024-03-01T04:47:59.488Z,40.03
2024-03-01T04:50:26.623Z,41.95
2024-03-01T04:52:53.313Z,40.15
2024-03-01T04:55:20.187Z,34.60
2024-03-01T04:57:46.916Z,39.75
2024-03-01T05:00:13.842Z,40.33
2024-03-01T05:02:42.319Z,35.08
2024-03-01T05:05:12.441Z,38.15
2024-03-01T05:07:42.271Z,35.92
2024-03-01T05:10:12.324Z,36.17
2024-03-01T05:12:39.395Z,34.22
2024-03-01T05:15:06.328Z,40.50
2024-03-01T05:17:33.997Z,36.38
2024-03-01T05:20:00.635Z,41.65
2024-03-01T05:22:27.546Z,42.17
2024-03-01T05:24:54.291Z,39.00
2024-03-01T05:27:20.941Z,37.50
2024-03-01T05:29:47.571Z,37.35
2024-03-01T05:32:14.217Z,43.92
2024-03-01T05:34:41.038Z,44.90
2024-03-01T05:37:07.859Z,39.42
2024-03-01T05:39:34.531Z,38.90
2024-03-01T05:42:01.187Z,36.67
2024-03-01T05:44:27.806Z,43.47
2024-03-01T05:46:54.754Z,36.20
2024-03-01T05:49:21.739Z,41.25
2024-03-01T05:51:48.413Z,45.45
2024-03-01T05:54:15.049Z,42.25
2024-03-01T05:56:42.209Z,43.30
2024-03-01T05:59:09.017Z,38.13
2024-03-01T06:01:36.198Z,40.13
2024-03-01T06:04:11.836Z,43.33
2024-03-01T06:06:38.737Z,34.65
2024-03-01T06:09:06.279Z,85.70
2024-03-01T06:11:33.166Z,47.20
2024-03-01T06:13:59.803Z,38.78
2024-03-01T06:16:27.187Z,41.53
2024-03-01T06:18:54.008Z,44.42
2024-03-01T06:21:26.882Z,43.00
2024-03-01T06:23:53.471Z,44.33
2024-03-01T06:26:20.209Z,34.58
2024-03-01T06:28:46.824Z,38.30
2024-03-01T06:31:13.501Z,40.58
2024-03-01T06:33:42.196Z,39.40
2024-03-01T06:36:09.611Z,39.55
2024-03-01T06:38:37.557Z,34.35
2024-03-01T06:41:06.532Z,38.72
2024-03-01T06:43:33.412Z,40.85
2024-03-01T06:46:01.544Z,43.78
2024-03-01T06:48:28.184Z,40.75
2024-03-01T06:50:55.221Z,40.30
2024-03-01T06:53:21.868Z,39.63
2024-03-01T06:55:48.445Z,37.55
2024-03-01T06:58:15.149Z,40.63
2024-03-01T07:00:48.155Z,41.38
2024-03-01T07:05:42.079Z,40.78
2024-03-01T07:08:09.118Z,33.88
2024-03-01T07:10:35.860Z,40.53
2024-03-01T07:13:02.539Z,40.15
2024-03-01T07:15:30.694Z,36.15
2024-03-01T07:18:00.419Z,35.83
2024-03-01T07:20:27.018Z,40.63
2024-03-01T07:22:54.166Z,36.63
2024-03-01T07:25:20.832Z,36.30
2024-03-01T07:27:47.502Z,42.30
2024-03-01T07:30:14.274Z,39.30
2024-03-01T07:32:42.942Z,37.08
2024-03-01T07:35:09.886Z,40.50
2024-03-01T07:37:36.642Z,40.92
2024-03-01T07:40:07.171Z,38.65
2024-03-01T07:42:33.828Z,41.05
2024-03-01T07:45:00.970Z,32.75
2024-03-01T07:47:31.438Z,35.72
2024-03-01T07:49:58.312Z,36.17
2024-03-01T07:52:31.168Z,35.63
2024-03-01T07:54:57.943Z,32.85
2024-03-01T07:57:24.721Z,31.15
2024-03-01T07:59:52.430Z,37.80
2024-03-01T08:02:19.077Z,35.60
2024-03-01T08:04:45.787Z,37.78
2024-03-01T08:07:15.820Z,38.80
2024-03-01T08:09:44.181Z,35.70
2024-03-01T08:12:12.200Z,31.33
2024-03-01T08:14:38.883Z,35.72
2024-03-01T08:17:06.294Z,34.20
2024-03-01T08:19:37.113Z,29.88
2024-03-01T08:22:14.997Z,35.42
2024-03-01T08:24:42.718Z,29.63
2024-03-01T08:27:10.810Z,34.70
2024-03-01T08:29:37.678Z,32.97
2024-03-01T08:32:07.674Z,37.22
2024-03-01T08:34:38.851Z,30.33
2024-03-01T08:37:06.802Z,28.92
2024-03-01T08:39:34.986Z,28.10
2024-03-01T08:42:04.710Z,34.75
2024-03-01T08:44:40.183Z,32.15
2024-03-01T08:47:07.672Z,30.70
2024-03-01T08:49:57.260Z,33.70
2024-03-01T08:52:24.220Z,35.08
2024-03-01T08:54:51.350Z,28.35
2024-03-01T08:57:26.609Z,33.92
2024-03-01T08:59:53.334Z,30.25
2024-03-01T09:02:49.794Z,29.75
2024-03-01T09:05:19.722Z,27.67
2024-03-01T09:07:46.357Z,28.52
2024-03-01T09:10:32.308Z,28.67
2024-03-01T09:12:59.398Z,33.92
2024-03-01T09:15:26.731Z,36.00
2024-03-01T09:17:53.546Z,34.05
2024-03-01T09:20:24.165Z,27.55
2024-03-01T09:22:50.800Z,30.77
2024-03-01T09:25:47.458Z,28.27
2024-03-01T09:28:15.645Z,27.70
2024-03-01T09:30:42.474Z,26.88
2024-03-01T09:33:14.622Z,25.08
2024-03-01T09:35:42.632Z,27.48
2024-03-01T09:38:09.751Z,25.00
2024-03-01T09:40:39.319Z,26.38
2024-03-01T09:43:24.417Z,26.25
2024-03-01T09:45:52.369Z,27.15
2024-03-01T09:48:25.241Z,27.98
2024-03-01T09:51:06.072Z,29.88
2024-03-01T09:53:41.859Z,31.73
2024-03-01T09:56:12.944Z,32.70
2024-03-01T09:58:39.613Z,31.77
2024-03-01T10:01:17.353Z,32.30
2024-03-01T10:03:53.651Z,34.25
2024-03-01T10:06:39.668Z,32.22
2024-03-01T10:09:36.149Z,32.53
2024-03-01T10:12:19.054Z,28.20
2024-03-01T10:14:53.215Z,31.00
2024-03-01T10:17:29.072Z,32.20
2024-03-01T10:20:01.793Z,30.17
2024-03-01T10:22:43.436Z,34.38
2024-03-01T10:25:29.477Z,30.05
2024-03-01T10:27:57.203Z,28.30
2024-03-01T10:30:31.341Z,36.10
2024-03-01T10:33:14.411Z,28.83
2024-03-01T10:36:01.466Z,27.27
2024-03-01T10:38:32.809Z,23.83
2024-03-01T10:41:11.702Z,21.38
2024-03-01T10:43:48.172Z,18.65
2024-03-01T10:46:21.828Z,17.13
2024-03-01T10:48:58.441Z,18.80
2024-03-01T10:51:26.270Z,22.13
2024-03-01T10:53:57.065Z,18.73
2024-03-01T10:56:25.013Z,20.70
2024-03-01T10:58:56.749Z,15.93
2024-03-01T11:01:35.378Z,13.32
2024-03-01T11:04:05.446Z,14.25
2024-03-01T11:06:35.447Z,16.52
2024-03-01T11:09:10.671Z,14.07
2024-03-01T11:11:52.853Z,15.02
2024-03-01T11:14:20.213Z,12.95
2024-03-01T11:16:49.282Z,11.75
2024-03-01T11:19:17.095Z,12.43
2024-03-01T11:21:45.154Z,13.32
2024-03-01T11:24:18.635Z,13.85
2024-03-01T11:26:45.419Z,12.90
2024-03-01T11:29:13.832Z,13.88
2024-03-01T11:31:41.188Z,11.68
2024-03-01T11:34:09.089Z,13.63
2024-03-01T11:36:42.060Z,13.90
2024-03-01T11:41:35.442Z,11.18
2024-03-01T11:44:15.663Z,14.00
2024-03-01T11:47:01.289Z,11.73
2024-03-01T11:49:34.597Z,11.55
2024-03-01T11:52:22.061Z,12.27
2024-03-01T11:55:07.779Z,10.25
2024-03-01T11:57:44.507Z,12.07
2024-03-01T12:00:11.293Z,11.80
2024-03-01T12:02:38.049Z,9.23
2024-03-01T12:05:21.197Z,10.10
2024-03-01T12:10:33.659Z,9.07
2024-03-01T12:13:01.934Z,9.10
2024-03-01T12:15:33.160Z,10.23
2024-03-01T12:18:06.330Z,10.68
2024-03-01T12:20:35.026Z,9.65
2024-03-01T12:23:10.904Z,7.82
2024-03-01T12:25:37.892Z,9.73
2024-03-01T12:28:10.381Z,9.38
2024-03-01T12:30:38.279Z,9.00
2024-03-01T12:33:14.205Z,9.20
2024-03-01T12:35:43.912Z,8.30
2024-03-01T12:38:17.886Z,9.38
2024-03-01T12:41:02.968Z,10.63
2024-03-01T12:43:41.656Z,7.93
2024-03-01T12:46:20.514Z,7.95
2024-03-01T12:49:08.262Z,7.70
2024-03-01T12:51:39.020Z,6.97
2024-03-01T12:54:12.882Z,8.15
2024-03-01T12:56:42.920Z,10.02
2024-03-01T12:59:40.249Z,12.38
2024-03-01T13:02:27.437Z,9.18
2024-03-01T13:05:07.593Z,8.00
2024-03-01T13:07:36.066Z,10.70
2024-03-01T13:10:02.771Z,10.30
2024-03-01T13:12:29.604Z,11.73
2024-03-01T13:15:17.476Z,16.35
2024-03-01T13:17:56.681Z,13.88
2024-03-01T13:20:29.839Z,13.68
2024-03-01T13:23:00.317Z,16.25
2024-03-01T13:25:30.213Z,14.52
2024-03-01T13:28:02.071Z,15.10
2024-03-01T13:30:31.915Z,26.95
2024-03-01T13:33:10.405Z,26.00
2024-03-01T13:35:39.830Z,19.67
2024-03-01T13:38:19.561Z,19.25
2024-03-01T13:40:49.422Z,18.40
2024-03-01T13:43:21.046Z,24.52
2024-03-01T13:45:47.726Z,20.25
2024-03-01T13:48:34.469Z,18.95
2024-03-01T13:51:02.621Z,17.13
2024-03-01T13:53:30.806Z,20.15
2024-03-01T13:55:58.318Z,19.88
2024-03-01T13:58:32.124Z,23.15
2024-03-01T14:00:59.763Z,18.98
2024-03-01T14:03:26.464Z,17.75
2024-03-01T14:05:57.354Z,18.00
2024-03-01T14:08:24.086Z,20.27
2024-03-01T14:10:51.514Z,21.08
2024-03-01T14:13:23.497Z,24.35
2024-03-01T14:15:51.485Z,19.13
2024-03-01T14:18:19.729Z,19.83
2024-03-01T14:20:47.829Z,17.83
2024-03-01T14:23:14.455Z,20.85
2024-03-01T14:25:41.104Z,23.08
2024-03-01T14:28:07.873Z,20.65
2024-03-01T14:30:35.688Z,23.50
2024-03-01T14:33:21.664Z,20.77
2024-03-01T14:35:48.900Z,22.73
2024-03-01T14:38:22.356Z,25.33
2024-03-01T14:40:56.102Z,22.83
2024-03-01T14:43:23.307Z,23.27
2024-03-01T14:45:52.784Z,23.27
2024-03-01T14:48:29.553Z,21.90
2024-03-01T14:51:02.863Z,26.98
2024-03-01T14:53:47.534Z,21.52
2024-03-01T14:56:18.324Z,26.02
2024-03-01T14:58:45.446Z,21.92
2024-03-01T15:01:21.269Z,22.35
2024-03-01T15:03:50.306Z,21.85
2024-03-01T15:06:17.539Z,19.48
2024-03-01T15:08:44.536Z,21.40
2024-03-01T15:11:16.675Z,26.23
2024-03-01T15:13:45.584Z,24.60
2024-03-01T15:16:22.567Z,23.45
2024-03-01T15:18:49.672Z,20.15
2024-03-01T15:21:18.901Z,20.27
2024-03-01T15:23:45.757Z,18.50
2024-03-01T15:26:12.510Z,19.92
2024-03-01T15:28:40.128Z,24.05
2024-03-01T15:31:07.746Z,22.40
2024-03-01T15:33:34.684Z,20.73
2024-03-01T15:36:01.598Z,20.60
2024-03-01T15:38:28.562Z,16.98
2024-03-01T15:40:57.872Z,19.15
2024-03-01T15:43:24.745Z,18.88
2024-03-01T15:45:52.905Z,19.10
2024-03-01T15:48:19.856Z,19.85
2024-03-01T15:50:46.738Z,28.55
2024-03-01T15:53:15.884Z,19.73
2024-03-01T15:55:48.986Z,17.95
2024-03-01T15:58:15.806Z,17.90
2024-03-01T16:00:43.107Z,17.95
2024-03-01T16:03:09.833Z,21.30
2024-03-01T16:05:37.441Z,21.33
2024-03-01T16:08:04.338Z,20.50
2024-03-01T16:10:31.727Z,17.10
2024-03-01T16:12:59.783Z,18.05
2024-03-01T16:15:27.470Z,18.35
2024-03-01T16:17:55.368Z,20.65
2024-03-01T16:20:22.367Z,19.75
2024-03-01T16:22:49.477Z,19.63
2024-03-01T16:25:16.873Z,19.45
2024-03-01T16:27:44.283Z,17.83
2024-03-01T16:30:13.285Z,18.63
2024-03-01T16:32:43.836Z,17.35
2024-03-01T16:35:26.120Z,19.48
2024-03-01T16:37:53.162Z,19.08
2024-03-01T16:40:20.566Z,16.73
2024-03-01T16:42:48.346Z,17.58
2024-03-01T16:45:33.867Z,17.73
2024-03-01T16:48:00.984Z,17.88
2024-03-01T16:50:27.641Z,18.30
2024-03-01T16:52:54.498Z,19.15
2024-03-01T16:55:36.866Z,16.77
2024-03-01T16:58:04.115Z,19.73
2024-03-01T17:00:33.323Z,20.83
2024-03-01T17:03:03.479Z,16.95
2024-03-01T17:05:42.252Z,19.42
2024-03-01T17:08:11.738Z,19.33
2024-03-01T17:10:38.818Z,22.58
2024-03-01T17:13:05.823Z,23.48
2024-03-01T17:15:32.703Z,19.33
2024-03-01T17:18:00.073Z,18.73
2024-03-01T17:20:26.830Z,18.08
2024-03-01T17:22:53.471Z,17.48
2024-03-01T17:25:20.691Z,19.05
2024-03-01T17:27:47.310Z,23.17
2024-03-01T17:30:14.352Z,19.27
2024-03-01T17:32:41.508Z,19.50
2024-03-01T17:35:08.177Z,18.83
2024-03-01T17:37:34.904Z,21.58
2024-03-01T17:40:01.673Z,16.23
2024-03-01T17:42:28.390Z,17.02
2024-03-01T17:44:55.259Z,18.58
2024-03-01T17:47:21.874Z,19.13
2024-03-01T17:49:48.538Z,20.95
2024-03-01T17:52:15.384Z,19.00
2024-03-01T17:54:42.136Z,20.15
2024-03-01T17:57:09.002Z,18.58
2024-03-01T17:59:35.752Z,17.00
2024-03-01T18:02:03.688Z,20.65
2024-03-01T18:04:30.788Z,24.95
2024-03-01T18:06:57.428Z,19.38
2024-03-01T18:09:24.170Z,18.92
2024-03-01T18:11:50.962Z,20.50
2024-03-01T18:14:18.023Z,18.85
2024-03-01T18:16:44.785Z,21.38
2024-03-01T18:19:14.287Z,23.27
2024-03-01T18:21:41.722Z,23.75
2024-03-01T18:24:08.439Z,18.33
2024-03-01T18:26:35.628Z,20.23
2024-03-01T18:29:02.581Z,20.52
2024-03-01T18:31:30.732Z,19.98
2024-03-01T18:33:57.440Z,20.73
2024-03-01T18:36:27.615Z,17.88
2024-03-01T18:38:54.486Z,18.17
2024-03-01T18:41:21.048Z,18.77
2024-03-01T18:43:47.925Z,16.58
2024-03-01T18:46:15.441Z,18.27
2024-03-01T18:48:42.515Z,21.02
2024-03-01T18:51:10.337Z,19.63
2024-03-01T18:53:37.011Z,16.48
2024-03-01T18:56:03.898Z,21.90
2024-03-01T18:58:30.542Z,18.98
2024-03-01T19:01:09.963Z,19.80
2024-03-01T19:03:42.608Z,20.85
2024-03-01T19:06:12.824Z,22.08
2024-03-01T19:08:39.494Z,19.95
2024-03-01T19:11:06.235Z,18.98
2024-03-01T19:13:32.920Z,20.60
2024-03-01T19:15:59.547Z,22.98
2024-03-01T19:18:26.286Z,21.75
2024-03-01T19:20:54.056Z,22.33
2024-03-01T19:23:21.176Z,24.25
2024-03-01T19:25:47.838Z,20.17
2024-03-01T19:28:15.385Z,19.75
2024-03-01T19:30:45.068Z,23.10
2024-03-01T19:33:11.913Z,24.50
2024-03-01T19:35:41.783Z,21.13
2024-03-01T19:38:10.550Z,20.48
2024-03-01T19:40:37.265Z,21.10
2024-03-01T19:43:06.076Z,20.98
2024-03-01T19:45:33.351Z,22.92
2024-03-01T19:47:59.949Z,22.88
2024-03-01T19:50:29.687Z,29.27
2024-03-01T19:52:58.855Z,27.90
2024-03-01T19:55:26.470Z,26.98
2024-03-01T19:57:53.083Z,28.10
2024-03-01T20:00:20.599Z,26.17
2024-03-01T20:02:48.865Z,22.70
2024-03-01T20:05:19.265Z,25.00
2024-03-01T20:07:45.997Z,20.80
2024-03-01T20:10:12.896Z,18.40
2024-03-01T20:12:40.478Z,18.83
2024-03-01T20:15:07.515Z,22.40
2024-03-01T20:17:34.390Z,21.08
2024-03-01T20:20:03.194Z,19.05
2024-03-01T20:22:30.935Z,26.98
2024-03-01T20:24:57.666Z,18.40
2024-03-01T20:27:24.403Z,22.10
2024-03-01T20:29:52.261Z,23.20
2024-03-01T20:32:18.966Z,22.10
2024-03-01T20:34:45.587Z,20.75
2024-03-01T20:37:12.335Z,21.05
2024-03-01T20:39:38.942Z,21.52
2024-03-01T20:42:05.797Z,21.60
2024-03-01T20:44:32.884Z,22.40
2024-03-01T20:46:59.692Z,21.30
2024-03-01T20:49:26.695Z,24.25
2024-03-01T20:51:53.449Z,16.23
2024-03-01T20:54:21.219Z,20.73
2024-03-01T20:56:47.931Z,21.30
2024-03-01T20:59:14.614Z,19.75
2024-03-01T21:01:41.807Z,17.13
2024-03-01T21:04:08.841Z,18.98
2024-03-01T21:06:35.653Z,15.30
2024-03-01T21:09:02.377Z,21.50
2024-03-01T21:11:29.128Z,16.38
2024-03-01T21:13:55.974Z,19.92
2024-03-01T21:16:22.625Z,17.45
2024-03-01T21:18:49.527Z,17.60
2024-03-01T21:21:16.385Z,17.17
2024-03-01T21:23:43.117Z,17.48
2024-03-01T21:26:10.443Z,16.02
2024-03-01T21:28:37.346Z,17.13
2024-03-01T21:31:04.030Z,16.63
2024-03-01T21:33:30.859Z,18.60
2024-03-01T21:35:57.591Z,22.90
2024-03-01T21:38:24.467Z,19.90
2024-03-01T21:40:51.815Z,21.98
2024-03-01T21:43:18.774Z,23.98
2024-03-01T21:45:51.672Z,19.40
2024-03-01T21:48:18.336Z,22.92
2024-03-01T21:50:45.168Z,19.38
2024-03-01T21:53:11.824Z,21.00
2024-03-01T21:55:40.731Z,17.75
2024-03-01T21:58:07.930Z,16.20
2024-03-01T22:00:34.580Z,17.52
2024-03-01T22:03:01.238Z,20.38
2024-03-01T22:05:27.823Z,16.92
2024-03-01T22:08:02.867Z,18.75
2024-03-01T22:10:37.330Z,16.23
2024-03-01T22:13:04.062Z,19.75
2024-03-01T22:15:30.703Z,15.52
2024-03-01T22:17:58.296Z,16.88
2024-03-01T22:20:25.055Z,15.15
2024-03-01T22:22:51.673Z,17.33
2024-03-01T22:25:18.625Z,14.88
2024-03-01T22:27:45.314Z,17.65
2024-03-01T22:30:12.194Z,14.05
2024-03-01T22:32:38.840Z,16.20
2024-03-01T22:35:05.743Z,15.55
2024-03-01T22:37:32.576Z,18.17
2024-03-01T22:39:59.330Z,19.90
2024-03-01T22:42:26.038Z,15.05
2024-03-01T22:44:52.724Z,16.92
2024-03-01T22:47:19.427Z,16.10
2024-03-01T22:49:46.900Z,17.23
2024-03-01T22:52:14.949Z,21.35
2024-03-01T22:54:41.627Z,17.42
2024-03-01T22:57:09.301Z,16.52
2024-03-01T22:59:35.938Z,21.88
2024-03-01T23:02:03.967Z,17.67
2024-03-01T23:04:34.007Z,17.15
2024-03-01T23:07:03.573Z,18.67
2024-03-01T23:09:30.646Z,15.13
2024-03-01T23:11:57.485Z,14.55
2024-03-01T23:14:46.198Z,17.90
2024-03-01T23:17:12.984Z,18.90
2024-03-01T23:19:40.725Z,15.32
2024-03-01T23:22:12.496Z,16.30
2024-03-01T23:24:40.194Z,16.02
2024-03-01T23:27:07.356Z,16.42
2024-03-01T23:29:34.279Z,18.08
2024-03-01T23:32:00.981Z,16.77
2024-03-01T23:34:27.655Z,16.75
2024-03-01T23:36:54.439Z,15.68
2024-03-01T23:39:21.129Z,17.73
2024-03-01T23:41:47.802Z,16.73
2024-03-01T23:44:14.507Z,15.50
2024-03-01T23:46:41.106Z,17.63
2024-03-01T23:49:07.915Z,16.30
2024-03-01T23:51:34.622Z,16.75
2024-03-01T23:54:01.419Z,16.20
2024-03-01T23:56:28.174Z,17.48
2024-03-01T23:58:54.997Z,17.92
